Time;durP1;ratioP1;P1;durP2;ratioP2;P2;SDS_P1;SDS_P2;PMS_P1;PMS_P2;Temp;Humidity;BMP_temperature;BMP_pressure;BME280_temperature;BME280_humidity;BME280_pressure;Samples;Min_cycle;Max_cycle;Signal;HPM_P1;HPM_P2
2022/01/18 00:01:39;;;;;;;23.20;13.75;;;;;;;3.43;100.00;97286.66;4872435;29;20111;-59
2022/01/18 00:04:27;;;;;;;22.58;13.90;;;;;;;3.42;100.00;97282.34;4884195;29;20480;-59
2022/01/18 00:07:13;;;;;;;21.92;13.95;;;;;;;3.48;100.00;97289.97;4868547;29;20093;-58
2022/01/18 00:09:58;;;;;;;22.55;13.73;;;;;;;3.52;100.00;97294.22;4887491;29;20139;-59
2022/01/18 00:13:06;;;;;;;20.20;12.82;;;;;;;3.51;100.00;97297.75;4887956;29;20121;-61
2022/01/18 00:16:09;;;;;;;20.48;11.68;;;;;;;3.57;100.00;97302.78;4888347;29;20183;-61
2022/01/18 00:18:59;;;;;;;21.35;12.10;;;;;;;3.62;100.00;97307.88;4885194;29;20135;-66
2022/01/18 00:22:06;;;;;;;22.63;12.50;;;;;;;3.66;100.00;97313.00;4887684;29;20051;-61
2022/01/18 00:24:52;;;;;;;20.60;12.75;;;;;;;3.63;100.00;97312.22;4889599;29;20140;-61
2022/01/18 00:27:37;;;;;;;19.25;12.68;;;;;;;3.61;100.00;97320.13;4888034;29;20101;-59
2022/01/18 00:30:58;;;;;;;23.55;12.73;;;;;;;3.67;100.00;97327.78;4888205;29;20490;-59
2022/01/18 00:33:43;;;;;;;19.50;11.83;;;;;;;3.70;100.00;97337.31;4886407;29;20103;-62
2022/01/18 00:36:41;;;;;;;20.63;12.43;;;;;;;3.69;100.00;97340.84;4883639;29;20086;-60
2022/01/18 00:39:27;;;;;;;18.38;11.40;;;;;;;3.76;100.00;97347.63;4882145;29;20116;-56
2022/01/18 00:42:13;;;;;;;20.13;11.50;;;;;;;3.84;100.00;97354.31;4888314;29;20055;-62
2022/01/18 00:44:58;;;;;;;17.95;11.20;;;;;;;3.85;100.00;97352.56;4886225;29;20063;-62
2022/01/18 00:47:43;;;;;;;19.45;12.07;;;;;;;3.82;100.00;97357.88;4886962;29;20115;-64
2022/01/18 00:50:31;;;;;;;22.92;13.18;;;;;;;3.80;100.00;97354.47;4888270;29;20116;-60
2022/01/18 00:53:18;;;;;;;20.30;12.55;;;;;;;3.87;100.00;97369.06;4887525;29;20481;-55
2022/01/18 00:58:54;;;;;;;22.08;12.68;;;;;;;3.78;100.00;97391.22;4889597;29;20066;-61
2022/01/18 01:01:39;;;;;;;21.55;13.10;;;;;;;3.81;100.00;97395.50;4871965;29;20132;-63
2022/01/18 01:04:27;;;;;;;18.77;12.40;;;;;;;3.87;100.00;97403.16;4872442;29;20052;-58
2022/01/18 01:07:13;;;;;;;22.98;12.43;;;;;;;3.91;100.00;97407.38;4869811;29;20540;-60
2022/01/18 01:09:57;;;;;;;19.85;12.13;;;;;;;3.92;100.00;97409.97;4882509;29;20104;-59
2022/01/18 01:12:42;;;;;;;20.47;12.70;;;;;;;3.95;100.00;97416.88;4879744;29;20135;-60
2022/01/18 01:15:29;;;;;;;22.80;13.20;;;;;;;3.99;100.00;97418.47;4882280;29;20325;-58
2022/01/18 01:18:32;;;;;;;21.67;12.77;;;;;;;4.00;100.00;97422.84;4873844;29;20060;-66
2022/01/18 01:45:17;;;;;;;23.33;13.77;;;;;;;3.82;100.00;97467.94;4870901;29;20077;-56
2022/01/18 01:48:03;;;;;;;24.30;14.25;;;;;;;3.65;100.00;97463.19;4897279;29;20055;-57
2022/01/18 01:50:53;;;;;;;22.00;13.88;;;;;;;3.66;100.00;97470.19;4857410;29;20060;-64
2022/01/18 01:53:38;;;;;;;23.08;13.75;;;;;;;3.71;100.00;97485.75;4884010;29;20056;-55
2022/01/18 01:56:24;;;;;;;20.52;12.80;;;;;;;3.60;100.00;97466.88;4887715;29;20059;-53
2022/01/18 01:59:10;;;;;;;22.73;13.57;;;;;;;3.66;100.00;97485.91;4883581;29;20055;-61
2022/01/18 02:01:55;;;;;;;22.13;13.75;;;;;;;3.64;100.00;97484.25;4871477;29;20136;-67
2022/01/18 02:04:40;;;;;;;25.05;14.13;;;;;;;3.66;100.00;97493.75;4875399;29;20117;-65
2022/01/18 02:07:27;;;;;;;24.92;14.18;;;;;;;3.61;100.00;97494.78;4892000;29;20156;-63
2022/01/18 02:10:13;;;;;;;25.67;14.70;;;;;;;3.63;100.00;97504.31;4888479;29;20609;-68
2022/01/18 02:12:58;;;;;;;24.42;14.52;;;;;;;3.65;100.00;97504.28;4892863;29;20055;-61
2022/01/18 02:16:11;;;;;;;25.27;14.98;;;;;;;3.57;100.00;97495.78;4878919;29;20047;-61
2022/01/18 02:21:55;;;;;;;26.98;15.48;;;;;;;3.53;100.00;97522.97;4897406;29;20091;-59
2022/01/18 02:24:41;;;;;;;27.73;15.70;;;;;;;3.56;100.00;97526.34;4882404;29;20320;-63
2022/01/18 02:27:28;;;;;;;25.00;15.63;;;;;;;3.51;100.00;97546.59;4882210;29;20152;-61
2022/01/18 02:30:14;;;;;;;28.88;15.07;;;;;;;3.51;100.00;97546.59;4872517;29;20128;-64
2022/01/18 02:32:59;;;;;;;26.70;15.90;;;;;;;3.53;100.00;97555.25;4885184;29;20064;-63
2022/01/18 02:35:46;;;;;;;26.17;15.68;;;;;;;3.40;100.00;97550.41;4894186;29;20203;-68
2022/01/18 02:38:31;;;;;;;24.00;14.80;;;;;;;3.48;100.00;97558.91;4886637;29;20540;-61
2022/01/18 02:41:30;;;;;;;27.52;17.00;;;;;;;3.54;100.00;97562.22;4880477;29;20115;-57
2022/01/18 02:44:15;;;;;;;30.42;16.15;;;;;;;3.43;100.00;97568.63;4886495;29;20059;-66
2022/01/18 02:47:02;;;;;;;28.75;16.00;;;;;;;3.44;100.00;97573.84;4873249;29;20092;-61
2022/01/18 02:49:49;;;;;;;27.95;15.45;;;;;;;3.45;100.00;97593.03;4879932;29;20120;-62
2022/01/18 02:52:34;;;;;;;27.00;15.48;;;;;;;3.25;100.00;97605.81;4872610;29;20071;-64
2022/01/18 02:55:20;;;;;;;24.08;15.50;;;;;;;3.19;100.00;97608.56;4886237;29;20083;-65
2022/01/18 02:58:10;;;;;;;28.25;16.17;;;;;;;3.17;100.00;97610.38;4889798;29;20607;-66
2022/01/18 03:03:54;;;;;;;25.50;15.40;;;;;;;3.03;100.00;97615.94;4874963;29;20052;-60
2022/01/18 03:06:40;;;;;;;26.00;14.73;;;;;;;3.00;100.00;97615.16;4886591;29;20889;-69
2022/01/18 03:09:25;;;;;;;28.30;15.82;;;;;;;2.91;100.00;97621.50;4889275;29;20143;-60
2022/01/18 03:12:11;;;;;;;27.30;15.65;;;;;;;2.75;100.00;97625.38;4880116;29;20164;-61
2022/01/18 03:14:55;;;;;;;27.17;14.75;;;;;;;2.59;100.00;97623.13;4886163;29;20378;-60
2022/01/18 03:17:40;;;;;;;26.42;15.20;;;;;;;2.70;100.00;97649.91;4880169;29;20568;-57
2022/01/18 03:20:25;;;;;;;24.55;14.68;;;;;;;2.68;100.00;97646.44;4881878;29;20132;-64
2022/01/18 03:23:15;;;;;;;28.98;13.95;;;;;;;2.64;100.00;97650.91;4894385;29;21197;-69
2022/01/18 03:26:02;;;;;;;26.23;14.10;;;;;;;2.50;100.00;97662.56;4884057;29;20450;-68
2022/01/18 03:28:47;;;;;;;22.38;13.75;;;;;;;2.45;100.00;97667.91;4885370;29;20113;-61
2022/01/18 03:31:31;;;;;;;23.85;13.23;;;;;;;2.39;100.00;97680.25;4885975;29;20055;-59
2022/01/18 03:34:17;;;;;;;22.17;13.20;;;;;;;2.48;100.00;97700.97;4886524;29;20051;-58
2022/01/18 03:37:02;;;;;;;22.05;12.65;;;;;;;2.49;100.00;97697.47;4892323;29;20052;-59
2022/01/18 03:39:47;;;;;;;18.30;10.95;;;;;;;2.37;100.00;97708.19;4885942;29;20537;-54
2022/01/18 03:45:29;;;;;;;20.08;10.18;;;;;;;2.15;100.00;97733.03;4871816;29;20087;-56
2022/01/18 03:48:27;;;;;;;18.15;9.63;;;;;;;2.11;100.00;97740.06;4872410;29;20140;-60
2022/01/18 03:51:12;;;;;;;17.67;9.73;;;;;;;2.05;100.00;97752.41;4889319;29;20052;-67
2022/01/18 03:53:57;;;;;;;17.10;9.50;;;;;;;2.10;100.00;97756.63;4878313;29;20422;-64
2022/01/18 03:56:41;;;;;;;15.82;8.48;;;;;;;2.14;100.00;97757.44;4875549;29;20342;-66
2022/01/18 03:59:26;;;;;;;15.68;9.43;;;;;;;2.26;100.00;97759.81;4892113;29;20063;-62
2022/01/18 04:02:12;;;;;;;15.02;9.77;;;;;;;2.26;100.00;97771.13;4871966;29;20547;-64
2022/01/18 04:04:56;;;;;;;18.17;10.20;;;;;;;2.09;100.00;97762.75;4884564;29;20052;-62
2022/01/18 04:07:42;;;;;;;15.13;8.77;;;;;;;1.99;100.00;97779.50;4873471;29;20056;-59
2022/01/18 04:10:27;;;;;;;16.23;8.15;;;;;;;1.97;100.00;97783.88;4880052;29;20111;-53
2022/01/18 04:13:12;;;;;;;14.90;8.40;;;;;;;1.97;100.00;97775.19;4900267;29;20067;-60
2022/01/18 04:15:57;;;;;;;14.63;8.60;;;;;;;1.96;100.00;97791.75;4879122;29;20056;-61
2022/01/18 04:19:21;;;;;;;15.95;8.40;;;;;;;2.02;100.00;97796.88;4880215;29;20063;-65
2022/01/18 04:31:28;;;;;;;13.27;6.40;;;;;;;1.92;100.00;97834.50;4880233;29;20127;-59
2022/01/18 04:34:14;;;;;;;11.98;7.45;;;;;;;1.93;100.00;97850.16;4874960;29;20078;-60
2022/01/18 04:36:58;;;;;;;11.50;6.90;;;;;;;1.82;100.00;97848.63;4874852;29;20058;-62
2022/01/18 04:39:46;;;;;;;;;;;;;;;1.80;100.00;97855.59;4886957;29;20560;-69
2022/01/18 04:42:48;;;;;;;13.32;7.05;;;;;;;1.77;100.00;97861.72;4892268;29;19932;-59
2022/01/18 04:48:37;;;;;;;11.45;6.47;;;;;;;1.79;100.00;97874.78;4875116;29;20810;-61
2022/01/18 04:51:23;;;;;;;11.73;6.57;;;;;;;1.78;100.00;97891.34;4886525;29;20076;-66
2022/01/18 04:54:10;;;;;;;10.65;6.22;;;;;;;1.82;100.00;97890.41;4887710;29;20536;-62
2022/01/18 04:59:40;;;;;;;12.45;6.35;;;;;;;1.83;100.00;97913.03;4866296;29;20052;-60
2022/01/18 05:02:26;;;;;;;10.60;5.90;;;;;;;1.69;100.00;97914.97;4874121;29;20051;-57
2022/01/18 05:05:18;;;;;;;11.20;6.15;;;;;;;1.66;100.00;97922.88;4887713;29;20087;-59
2022/01/18 05:08:05;;;;;;;13.30;6.22;;;;;;;1.59;100.00;97929.06;4878663;29;20120;-66
2022/01/18 05:10:54;;;;;;;10.02;5.75;;;;;;;1.53;100.00;97934.34;4893409;29;20064;-62
2022/01/18 05:25:11;;;;;;;8.68;5.30;;;;;;;1.40;100.00;97974.56;4877614;29;20095;-63
2022/01/18 05:27:57;;;;;;;9.13;5.18;;;;;;;1.42;100.00;97986.72;4886865;29;20136;-63
2022/01/18 05:30:42;;;;;;;7.85;4.55;;;;;;;1.51;100.00;97988.34;4880651;29;20113;-60
2022/01/18 05:33:27;;;;;;;8.50;4.75;;;;;;;1.60;100.00;97996.06;4883075;29;20093;-60
2022/01/18 05:36:11;;;;;;;7.68;4.53;;;;;;;1.59;100.00;97992.59;4873497;29;20101;-59
2022/01/18 05:38:57;;;;;;;7.65;4.30;;;;;;;1.46;100.00;98011.91;4892481;29;20136;-57
2022/01/18 05:41:45;;;;;;;7.85;4.45;;;;;;;1.46;100.00;98014.50;4886628;29;20552;-69
2022/01/18 05:44:29;;;;;;;7.28;4.05;;;;;;;1.51;100.00;98017.09;4884835;29;20417;-58
2022/01/18 05:47:14;;;;;;;5.90;3.90;;;;;;;1.54;100.00;98022.28;4876349;29;20060;-60
2022/01/18 05:50:00;;;;;;;5.78;3.65;;;;;;;1.61;100.00;98026.50;4885375;29;20060;-55
2022/01/18 05:52:45;;;;;;;5.47;3.40;;;;;;;1.57;100.00;98038.75;4887482;29;20131;-58
2022/01/18 05:55:30;;;;;;;5.38;3.38;;;;;;;1.44;100.00;98041.53;4878292;29;20055;-57
2022/01/18 05:58:14;;;;;;;6.13;3.10;;;;;;;1.29;100.00;98049.53;4877709;29;20138;-61
2022/01/18 06:01:01;;;;;;;5.50;3.45;;;;;;;1.33;100.00;98062.53;4891857;29;20127;-69
2022/01/18 06:04:08;;;;;;;6.93;3.28;;;;;;;1.30;100.00;98064.34;4877920;29;20152;-58
2022/01/18 06:06:54;;;;;;;4.57;3.05;;;;;;;1.20;100.00;98066.19;4875759;29;20100;-61
2022/01/18 06:09:39;;;;;;;5.40;3.17;;;;;;;1.24;100.00;98080.03;4877465;29;20052;-61
2022/01/18 06:12:26;;;;;;;6.22;3.45;;;;;;;1.36;100.00;98090.34;4887638;29;20602;-57
2022/01/18 06:15:11;;;;;;;4.70;2.53;;;;;;;1.34;100.00;98089.53;4873232;29;20067;-60
2022/01/18 06:17:58;;;;;;;5.25;3.00;;;;;;;1.34;100.00;98098.19;4891653;29;20536;-68
2022/01/18 06:20:43;;;;;;;5.85;2.78;;;;;;;1.35;100.00;98115.63;4889085;29;20059;-57
2022/01/18 06:23:28;;;;;;;4.55;2.40;;;;;;;1.30;100.00;98117.38;4878114;29;20092;-67
2022/01/18 06:26:15;;;;;;;;;;;;;;;1.35;100.00;98127.78;4891425;29;20052;-57
2022/01/18 06:29:02;;;;;;;3.47;2.30;;;;;;;1.31;100.00;98120.88;4888267;29;19962;-60
2022/01/18 06:31:49;;;;;;;4.38;2.45;;;;;;;1.24;100.00;98120.06;4878655;29;20103;-57
2022/01/18 06:34:33;;;;;;;3.70;2.25;;;;;;;1.23;100.00;98126.16;4878795;29;20070;-58
2022/01/18 06:37:19;;;;;;;3.63;2.28;;;;;;;1.25;100.00;98137.44;4889767;29;20975;-69
2022/01/18 06:40:06;;;;;;;4.75;2.22;;;;;;;1.38;100.00;98138.22;4890990;29;20055;-57
2022/01/18 06:42:52;;;;;;;3.88;2.10;;;;;;;1.35;100.00;98157.38;4887920;29;20075;-59
2022/01/18 06:45:37;;;;;;;3.10;1.83;;;;;;;1.30;100.00;98166.13;4893407;29;20612;-60
2022/01/18 06:48:22;;;;;;;3.33;1.88;;;;;;;1.14;100.00;98168.00;4890665;29;20112;-58
2022/01/18 06:51:09;;;;;;;4.78;2.28;;;;;;;1.37;100.00;98179.09;4892129;29;20100;-60
2022/01/18 06:53:56;;;;;;;3.63;2.10;;;;;;;1.22;100.00;98171.41;4874120;29;20091;-60
2022/01/18 06:56:44;;;;;;;3.33;1.70;;;;;;;1.41;100.00;98199.09;4886842;29;20144;-59
2022/01/18 06:59:30;;;;;;;3.13;1.80;;;;;;;1.42;100.00;98202.56;4902136;29;20204;-61
2022/01/18 07:02:15;;;;;;;3.13;1.92;;;;;;;1.28;100.00;98191.38;4885619;29;20083;-62
2022/01/18 07:05:02;;;;;;;3.75;1.80;;;;;;;1.32;100.00;98220.06;4892816;29;20059;-58
2022/01/18 07:07:47;;;;;;;1.95;1.30;;;;;;;1.18;100.00;98210.63;4891588;29;20047;-61
2022/01/18 07:10:32;;;;;;;4.00;1.60;;;;;;;1.17;100.00;98224.53;4886976;29;20504;-66
2022/01/18 07:13:16;;;;;;;2.60;1.20;;;;;;;1.22;100.00;98221.00;4890598;29;20156;-61
2022/01/18 07:16:01;;;;;;;1.48;1.02;;;;;;;1.26;100.00;98240.13;4889022;29;20277;-59
2022/01/18 07:18:46;;;;;;;1.42;0.85;;;;;;;1.50;100.00;98252.97;4887160;29;20054;-56
2022/01/18 07:21:31;;;;;;;3.05;1.27;;;;;;;1.47;100.00;98266.94;4892509;29;20116;-59
2022/01/18 07:24:36;;;;;;;2.63;1.38;;;;;;;1.60;100.00;98276.38;4890452;29;20087;-60
2022/01/18 07:27:20;;;;;;;3.05;1.63;;;;;;;1.68;100.00;98266.75;4889485;29;20132;-62
2022/01/18 07:30:06;;;;;;;4.13;1.50;;;;;;;1.84;100.00;98293.56;4888008;29;20058;-59
2022/01/18 07:32:51;;;;;;;3.70;1.58;;;;;;;1.71;100.00;98300.69;4891385;29;20553;-57
2022/01/18 07:35:35;;;;;;;4.90;1.70;;;;;;;1.66;100.00;98307.66;4876043;29;20222;-60
2022/01/18 07:38:20;;;;;;;4.90;1.75;;;;;;;1.54;100.00;98322.59;4877432;29;20104;-65
2022/01/18 07:41:05;;;;;;;3.72;1.50;;;;;;;1.47;100.00;98318.28;4877874;29;20132;-60
2022/01/18 07:43:50;;;;;;;2.47;1.63;;;;;;;1.48;100.00;98327.84;4856016;29;20132;-56
2022/01/18 07:46:34;;;;;;;2.17;1.27;;;;;;;1.36;100.00;98335.75;4873630;29;20063;-60
2022/01/18 07:49:19;;;;;;;2.20;1.40;;;;;;;1.33;100.00;98335.78;4882650;29;20064;-66
2022/01/18 07:52:04;;;;;;;3.67;1.40;;;;;;;1.41;100.00;98352.25;4881249;29;20541;-63
2022/01/18 07:54:50;;;;;;;3.08;1.48;;;;;;;1.41;100.00;98363.56;4889762;29;20132;-62
2022/01/18 07:57:41;;;;;;;3.00;1.95;;;;;;;1.27;100.00;98365.38;4882796;29;20101;-63
2022/01/18 08:00:27;;;;;;;4.53;1.55;;;;;;;1.28;100.00;98384.53;4888521;29;20536;-62
2022/01/18 08:03:12;;;;;;;3.78;1.58;;;;;;;1.30;100.00;98388.88;4887238;29;20083;-59
2022/01/18 08:05:57;;;;;;;2.13;1.40;;;;;;;1.34;100.00;98403.63;4890419;29;20090;-64
2022/01/18 08:08:42;;;;;;;3.22;1.65;;;;;;;1.34;100.00;98405.41;4890448;29;20070;-62
2022/01/18 08:11:28;;;;;;;3.55;1.70;;;;;;;1.34;100.00;98405.41;4887173;29;20062;-70
2022/01/18 08:14:16;;;;;;;2.00;1.42;;;;;;;1.34;100.00;98421.06;4883070;29;20059;-67
2022/01/18 08:17:07;;;;;;;1.88;1.35;;;;;;;1.04;100.00;98437.75;4890055;29;20059;-62
2022/01/18 08:19:54;;;;;;;3.45;1.55;;;;;;;1.21;100.00;98441.13;4888752;29;20059;-64
2022/01/18 08:22:49;;;;;;;3.92;1.50;;;;;;;1.27;100.00;98441.09;4888727;29;20059;-67
2022/01/18 08:25:39;;;;;;;2.30;1.42;;;;;;;1.38;100.00;98456.72;4875310;29;20159;-64
2022/01/18 08:28:24;;;;;;;3.05;1.55;;;;;;;1.13;100.00;98470.72;4888903;29;20444;-64
2022/01/18 08:31:09;;;;;;;;;;;;;;;1.04;100.00;98466.44;4887953;29;20086;-59
2022/01/18 08:33:56;;;;;;;3.17;1.55;;;;;;;1.06;100.00;98480.34;4888442;29;19925;-71
2022/01/18 08:36:42;;;;;;;3.97;1.90;;;;;;;0.84;100.00;98468.25;4888676;29;20536;-63
2022/01/18 08:39:28;;;;;;;4.13;2.00;;;;;;;0.87;100.00;98499.50;4888365;29;20540;-62
2022/01/18 08:42:14;;;;;;;2.65;1.52;;;;;;;0.86;100.00;98489.97;4888083;29;20116;-59
2022/01/18 08:45:02;;;;;;;3.03;1.85;;;;;;;1.18;100.00;98505.53;4887554;29;20104;-60
2022/01/18 08:47:51;;;;;;;3.10;1.73;;;;;;;1.45;100.00;98515.84;4888017;29;20079;-66
2022/01/18 08:50:36;;;;;;;5.07;1.92;;;;;;;1.06;100.00;98508.19;4869271;29;20074;-63
2022/01/18 08:53:21;;;;;;;6.55;2.38;;;;;;;1.14;100.00;98512.50;4863460;29;20532;-58
2022/01/18 08:56:06;;;;;;;3.33;1.83;;;;;;;1.18;100.00;98531.66;4880254;29;20051;-69
2022/01/18 08:58:52;;;;;;;3.95;1.95;;;;;;;1.07;100.00;98544.69;4881699;29;20051;-62
2022/01/18 09:01:37;;;;;;;5.13;2.00;;;;;;;0.89;100.00;98531.69;4889191;29;20148;-72
2022/01/18 09:04:22;;;;;;;5.30;1.98;;;;;;;0.90;100.00;98546.47;4882151;29;20131;-61
2022/01/18 09:07:10;;;;;;;3.65;1.77;;;;;;;1.08;100.00;98563.84;4891744;29;20125;-62
2022/01/18 09:10:03;;;;;;;3.70;2.03;;;;;;;1.00;100.00;98542.13;4877074;29;20461;-58
2022/01/18 09:12:50;;;;;;;2.92;1.75;;;;;;;1.06;100.00;98584.72;4877178;29;20100;-66
2022/01/18 09:15:37;;;;;;;4.32;2.03;;;;;;;1.15;100.00;98561.19;4871626;29;20425;-75
2022/01/18 09:18:23;;;;;;;6.10;2.72;;;;;;;0.99;100.00;98585.59;4882578;29;20075;-65
2022/01/18 09:21:08;;;;;;;4.22;2.40;;;;;;;0.93;100.00;98583.00;4853649;29;20081;-67
2022/01/18 09:23:54;;;;;;;2.80;1.88;;;;;;;0.71;100.00;98575.19;4871746;29;20063;-61
2022/01/18 09:26:40;;;;;;;5.85;2.53;;;;;;;0.78;100.00;98600.44;4871617;29;20605;-60
2022/01/18 09:29:25;;;;;;;6.30;2.15;;;;;;;0.99;100.00;98605.63;4885465;29;20052;-68
2022/01/18 09:32:11;;;;;;;5.68;2.58;;;;;;;0.98;100.00;98603.88;4881669;29;20059;-59
2022/01/18 09:34:56;;;;;;;4.32;2.58;;;;;;;0.93;100.00;98626.47;4870373;29;20116;-59
2022/01/18 09:37:42;;;;;;;5.00;2.10;;;;;;;0.96;100.00;98624.75;4881457;29;20060;-63
2022/01/18 09:40:28;;;;;;;6.18;2.58;;;;;;;0.93;100.00;98645.63;4886526;29;20108;-58
2022/01/18 09:43:15;;;;;;;7.10;2.60;;;;;;;1.04;100.00;98641.28;4890611;29;20519;-60
2022/01/18 09:46:00;;;;;;;5.78;2.88;;;;;;;1.28;100.00;98656.91;4873412;29;20148;-59
2022/01/18 09:48:47;;;;;;;4.43;2.55;;;;;;;1.21;100.00;98675.19;4866080;29;20056;-61
2022/01/18 09:51:33;;;;;;;6.25;2.35;;;;;;;1.08;100.00;98690.00;4887553;29;20111;-61
2022/01/18 09:54:18;;;;;;;4.18;1.95;;;;;;;1.09;100.00;98681.28;4879642;29;20141;-65
2022/01/18 09:57:03;;;;;;;7.80;1.77;;;;;;;0.86;100.00;98684.78;4871898;29;20113;-56
2022/01/18 09:59:49;;;;;;;4.75;1.50;;;;;;;0.76;100.00;98693.44;4862524;29;20060;-59
2022/01/18 10:02:33;;;;;;;2.88;1.55;;;;;;;0.66;100.00;98691.72;4890393;29;20158;-73
2022/01/18 10:05:25;;;;;;;;;;;;;;;0.73;100.00;98699.53;4881406;29;20055;-55
2022/01/18 10:08:16;;;;;;;2.15;1.40;;;;;;;0.50;100.00;98702.94;4878659;29;19983;-56
2022/01/18 10:11:14;;;;;;;3.72;1.65;;;;;;;0.49;100.00;98725.56;4872967;29;20143;-58
2022/01/18 10:13:59;;;;;;;4.25;1.70;;;;;;;0.60;100.00;98723.84;4899592;29;20111;-62
2022/01/18 10:16:44;;;;;;;3.35;1.73;;;;;;;0.78;100.00;98741.28;4881786;29;20088;-59
2022/01/18 10:19:32;;;;;;;5.97;1.95;;;;;;;0.86;100.00;98743.00;4897553;29;20589;-56
2022/01/18 10:22:28;;;;;;;3.42;1.80;;;;;;;0.78;100.00;98755.19;4877045;29;20137;-57
2022/01/18 10:25:16;;;;;;;;;;;;;;;0.91;100.00;98764.75;4877041;29;20067;-61
2022/01/18 10:28:01;;;;;;;3.17;1.70;;;;;;;0.88;100.00;98759.56;4884797;29;20410;-62
2022/01/18 10:30:49;;;;;;;4.78;1.80;;;;;;;0.89;100.00;98782.16;4891958;29;20119;-62
2022/01/18 10:33:46;;;;;;;3.33;1.67;;;;;;;1.01;100.00;98789.13;4870621;29;20489;-67
2022/01/18 10:36:31;;;;;;;4.30;1.80;;;;;;;0.87;100.00;98783.88;4877243;29;20221;-57
2022/01/18 10:39:22;;;;;;;2.83;1.60;;;;;;;0.87;100.00;98801.31;4885645;29;20094;-58
2022/01/18 10:42:20;;;;;;;2.17;1.25;;;;;;;0.75;100.00;98803.88;4867102;29;20105;-65
2022/01/18 10:45:14;;;;;;;4.18;1.52;;;;;;;0.71;100.00;98808.19;4890967;29;20533;-64
2022/01/18 10:48:14;;;;;;;5.28;1.98;;;;;;;0.70;100.00;98816.88;4897554;29;20068;-62
2022/01/18 10:51:00;;;;;;;3.35;1.70;;;;;;;0.61;100.00;98806.44;4872929;29;20096;-62
2022/01/18 10:53:59;;;;;;;3.75;1.40;;;;;;;0.75;100.00;98825.59;4880353;29;20056;-59
2022/01/18 10:56:49;;;;;;;2.47;1.60;;;;;;;0.66;100.00;98827.31;4893660;29;20051;-67
2022/01/18 10:59:37;;;;;;;2.08;1.38;;;;;;;0.49;100.00;98847.22;4874457;29;20798;-59
2022/01/18 11:02:23;;;;;;;3.28;1.85;;;;;;;0.25;100.00;98855.78;4877582;29;20055;-57
2022/01/18 11:05:21;;;;;;;3.55;1.50;;;;;;;0.43;100.00;98852.41;4875931;29;20116;-59
2022/01/18 11:08:07;;;;;;;3.63;1.40;;;;;;;0.14;100.00;98849.63;4877533;29;20058;-60
2022/01/18 11:10:53;;;;;;;2.28;1.60;;;;;;;0.25;100.00;98860.13;4892399;29;20065;-57
2022/01/18 11:13:44;;;;;;;3.35;1.73;;;;;;;0.25;100.00;98874.03;4898057;29;20190;-62
2022/01/18 11:16:36;;;;;;;3.72;1.60;;;;;;;0.27;100.00;98874.91;4889982;29;20091;-57
2022/01/18 11:22:12;;;;;;;4.10;1.77;;;;;;;0.37;100.00;98904.50;4880899;29;20134;-64
2022/01/18 11:25:01;;;;;;;5.15;1.90;;;;;;;0.51;100.00;98905.47;4879524;29;20136;-65
2022/01/18 11:27:51;;;;;;;3.28;1.63;;;;;;;0.48;100.00;98911.56;4889732;29;20068;-59
2022/01/18 11:30:40;;;;;;;2.92;1.58;;;;;;;0.38;100.00;98914.94;4888274;29;20059;-57
2022/01/18 11:33:27;;;;;;;4.80;1.70;;;;;;;0.60;100.00;98921.16;4889967;29;20059;-59
2022/01/18 11:36:15;;;;;;;4.80;1.70;;;;;;;0.46;100.00;98920.19;4891427;29;20116;-64
2022/01/18 11:39:05;;;;;;;4.35;1.90;;;;;;;0.56;100.00;98937.66;4885330;29;20051;-57
2022/01/18 11:42:06;;;;;;;2.58;1.60;;;;;;;0.51;100.00;98949.81;4880014;29;20127;-60
2022/01/18 11:44:51;;;;;;;3.70;1.50;;;;;;;0.55;100.00;98959.41;4886761;29;20074;-67
2022/01/18 11:47:36;;;;;;;5.10;1.77;;;;;;;0.24;100.00;98973.06;4892279;29;20104;-61
2022/01/18 11:50:27;;;;;;;2.60;1.55;;;;;;;0.13;100.00;98973.00;4879759;29;20154;-58
2022/01/18 11:53:23;;;;;;;2.17;1.50;;;;;;;0.11;100.00;98977.28;4890095;29;20056;-58
2022/01/18 11:56:32;;;;;;;2.10;1.05;;;;;;;0.07;100.00;98998.97;4889867;29;20463;-57
2022/01/18 11:59:18;;;;;;;2.33;1.35;;;;;;;-0.09;100.00;98986.66;4855979;29;20132;-56
2022/01/18 12:02:05;;;;;;;2.33;1.30;;;;;;;-0.04;100.00;99000.59;4870758;29;20096;-60
2022/01/18 12:04:59;;;;;;;5.82;1.67;;;;;;;-0.20;100.00;99004.81;4854657;29;20124;-58
2022/01/18 12:07:44;;;;;;;1.92;1.20;;;;;;;-0.21;100.00;99008.28;4846673;29;20161;-66
2022/01/18 12:10:38;;;;;;;4.13;1.40;;;;;;;-0.09;100.00;99000.59;4852715;29;20582;-57
2022/01/18 12:13:33;;;;;;;2.10;1.50;;;;;;;-0.21;100.00;99030.84;4856916;29;20623;-59
2022/01/18 12:16:22;;;;;;;3.65;1.65;;;;;;;0.08;100.00;99031.13;4866692;29;20926;-62
2022/01/18 12:19:09;;;;;;;2.85;1.60;;;;;;;0.21;100.00;99049.50;4847818;29;20477;-61
2022/01/18 12:21:55;;;;;;;;;;;;;;;0.23;100.00;99049.53;4870753;29;20052;-63
2022/01/18 12:24:46;;;;;;;3.72;1.83;;;;;;;0.16;100.00;99059.03;4857100;29;20563;-54
2022/01/18 12:27:32;;;;;;;2.80;1.95;;;;;;;0.12;100.00;99066.78;4839135;29;20094;-57
2022/01/18 12:30:38;;;;;;;4.40;2.05;;;;;;;-0.20;100.00;99072.53;4853900;29;20123;-61
2022/01/18 12:33:24;;;;;;;3.00;2.03;;;;;;;-0.13;100.00;99076.97;4848464;29;20168;-64
2022/01/18 12:36:31;;;;;;;2.40;1.73;;;;;;;-0.03;100.00;99090.97;4874020;29;20533;-59
2022/01/18 12:39:16;;;;;;;4.63;1.98;;;;;;;-0.33;100.00;99098.41;4878692;29;20566;-51
2022/01/18 12:42:03;;;;;;;2.92;1.50;;;;;;;-0.41;100.00;99106.16;4889768;29;20062;-57
2022/01/18 12:44:49;;;;;;;3.90;1.75;;;;;;;-0.46;100.00;99115.63;4900919;29;20577;-58
2022/01/18 12:47:37;;;;;;;4.50;1.90;;;;;;;-0.38;100.00;99124.41;4886282;29;20743;-58
2022/01/18 12:50:26;;;;;;;4.32;1.70;;;;;;;-0.28;100.00;99127.97;4888438;29;20465;-56
2022/01/18 12:53:25;;;;;;;2.92;1.80;;;;;;;-0.36;100.00;99129.63;4882057;29;20140;-60
2022/01/18 12:56:11;;;;;;;4.65;1.98;;;;;;;-0.57;100.00;99131.94;4884882;29;20051;-56
2022/01/18 12:59:02;;;;;;;4.75;2.15;;;;;;;-0.67;100.00;99146.56;4886668;29;20201;-60
2022/01/18 13:01:51;;;;;;;3.72;1.50;;;;;;;-0.68;100.00;99155.22;4874434;29;20104;-61
2022/01/18 13:04:36;;;;;;;2.13;1.52;;;;;;;-0.65;100.00;99157.00;4893969;29;20067;-59
2022/01/18 13:07:21;;;;;;;4.78;1.80;;;;;;;-0.53;100.00;99168.47;4886774;29;20055;-56
2022/01/18 13:10:09;;;;;;;2.65;1.70;;;;;;;-0.79;100.00;99175.00;4886622;29;20043;-63
2022/01/18 13:12:54;;;;;;;3.53;1.60;;;;;;;-0.81;100.00;99187.13;4886217;29;20153;-64
2022/01/18 13:16:04;;;;;;;4.22;1.85;;;;;;;-0.91;100.00;99200.00;4889490;29;20207;-59
2022/01/18 13:25:20;;;;;;;3.20;1.80;;;;;;;-0.77;100.00;99209.75;4888106;29;20446;-57
2022/01/18 13:28:06;;;;;;;3.83;1.67;;;;;;;-0.93;100.00;99225.09;4872485;29;20051;-66
2022/01/18 13:30:52;;;;;;;3.28;1.80;;;;;;;-1.14;100.00;99223.00;4901554;29;20155;-58
2022/01/18 13:33:50;;;;;;;3.05;1.77;;;;;;;-1.04;100.00;99227.53;4877967;29;20108;-56
2022/01/18 13:36:48;;;;;;;2.80;1.85;;;;;;;-0.88;100.00;99245.13;4886965;29;20481;-56
2022/01/18 13:40:02;;;;;;;2.97;1.63;;;;;;;-0.86;100.00;99246.00;4860761;29;20116;-67
2022/01/18 13:42:56;;;;;;;3.85;1.70;;;;;;;-0.85;100.00;99250.41;4849473;29;20051;-66
2022/01/18 13:45:43;;;;;;;3.83;2.17;;;;;;;-0.94;100.00;99264.97;4859890;29;20055;-59
2022/01/18 13:48:32;;;;;;;2.80;1.75;;;;;;;-0.94;100.00;99271.03;4888733;29;20056;-58
2022/01/18 13:51:19;;;;;;;3.17;1.90;;;;;;;-0.89;100.00;99271.13;4874796;29;20060;-60
2022/01/18 13:54:08;;;;;;;4.60;2.10;;;;;;;-0.95;100.00;99278.84;4889595;29;20059;-59
2022/01/18 13:56:56;;;;;;;3.40;1.80;;;;;;;-1.03;100.00;99270.88;4882821;29;20091;-59
2022/01/18 13:59:43;;;;;;;3.92;1.65;;;;;;;-1.07;100.00;99282.09;4891780;29;20055;-58
2022/01/18 14:02:29;;;;;;;3.45;1.60;;;;;;;-1.09;100.00;99296.81;4874711;29;20043;-75
2022/01/18 14:05:21;;;;;;;4.10;1.90;;;;;;;-1.17;100.00;99298.38;4881903;29;20072;-66
2022/01/18 14:08:11;;;;;;;3.58;1.95;;;;;;;-1.05;100.00;99301.22;4875408;29;20052;-65
2022/01/18 14:11:07;;;;;;;4.45;2.10;;;;;;;-1.01;100.00;99309.94;4878604;29;20055;-61
2022/01/18 14:13:55;;;;;;;4.18;2.30;;;;;;;-1.08;100.00;99319.34;4884258;29;20055;-64
2022/01/18 14:16:47;;;;;;;6.57;2.92;;;;;;;-1.20;100.00;99326.94;4878909;29;20100;-59
2022/01/18 14:19:36;;;;;;;5.75;2.72;;;;;;;-1.48;100.00;99340.25;4879927;29;20060;-59